Time;durP1;ratioP1;P1;durP2;ratioP2;P2;SDS_P1;SDS_P2;PMS_P1;PMS_P2;Temp;Humidity;BMP_temperature;BMP_pressure;BME280_temperature;BME280_humidity;BME280_pressure;Samples;Min_cycle;Max_cycle;Signal;HPM_P1;HPM_P2
2022/08/28 00:02:02;;;;;;;18.20;16.37;;;18.90;99.90;;;;;;8355949;28;20190;-67
2022/08/28 00:06:03;;;;;;;17.93;16.00;;;18.90;99.90;;;;;;8350196;28;20316;-67
2022/08/28 00:10:06;;;;;;;18.67;15.87;;;18.90;99.90;;;;;;8349541;28;20320;-67
2022/08/28 00:14:08;;;;;;;18.57;16.57;;;18.90;99.90;;;;;;8348928;28;20340;-65
2022/08/28 00:18:10;;;;;;;21.07;17.97;;;18.80;99.90;;;;;;8351394;28;20598;-66
2022/08/28 00:22:11;;;;;;;17.67;15.10;;;18.80;99.90;;;;;;8350984;28;20181;-67
2022/08/28 00:27:51;;;;;;;15.43;13.67;;;18.70;99.90;;;;;;8348073;28;20247;-66
2022/08/28 00:30:42;;;;;;;16.97;13.27;;;18.70;99.90;;;;;;8352490;28;20182;-66
2022/08/28 00:34:43;;;;;;;15.07;13.47;;;18.60;99.90;;;;;;8348992;28;20242;-66
2022/08/28 00:38:44;;;;;;;15.67;13.70;;;18.50;99.90;;;;;;8347848;28;20220;-67
2022/08/28 00:42:46;;;;;;;17.33;14.83;;;18.50;99.90;;;;;;8348453;28;20190;-67
2022/08/28 00:46:50;;;;;;;19.70;16.83;;;18.50;99.90;;;;;;8347355;28;20257;-66
2022/08/28 00:55:15;;;;;;;22.47;18.13;;;18.60;99.90;;;;;;8352460;28;20196;-66
2022/08/28 00:59:18;;;;;;;20.13;17.73;;;18.60;99.90;;;;;;8380567;28;20193;-66
2022/08/28 01:03:20;;;;;;;18.20;16.20;;;18.60;99.90;;;;;;8348126;28;20197;-65
2022/08/28 01:07:22;;;;;;;23.00;19.03;;;18.70;99.90;;;;;;8350442;28;20216;-66
2022/08/28 01:11:23;;;;;;;25.27;20.30;;;18.70;99.90;;;;;;8347192;28;20237;-65
2022/08/28 01:15:31;;;;;;;25.30;20.50;;;18.70;99.90;;;;;;8350764;28;20184;-67
2022/08/28 01:19:41;;;;;;;24.40;18.07;;;18.80;99.90;;;;;;8355247;28;20322;-65
2022/08/28 01:23:53;;;;;;;17.77;15.70;;;18.70;99.90;;;;;;8347171;28;20190;-67
2022/08/28 01:27:54;;;;;;;19.80;16.83;;;18.80;99.90;;;;;;8349700;28;20224;-66
2022/08/28 01:31:55;;;;;;;20.97;17.07;;;18.80;99.90;;;;;;8348059;28;20209;-67
2022/08/28 01:35:56;;;;;;;26.03;19.80;;;18.80;99.90;;;;;;8355215;28;20185;-66
2022/08/28 01:39:57;;;;;;;19.83;17.17;;;18.80;99.90;;;;;;8346038;28;20196;-66
2022/08/28 01:43:58;;;;;;;17.70;15.30;;;18.80;99.90;;;;;;8346025;28;20192;-66
2022/08/28 01:47:59;;;;;;;19.93;17.07;;;18.70;99.90;;;;;;8341035;28;20194;-72
2022/08/28 01:52:00;;;;;;;23.77;19.00;;;18.80;99.90;;;;;;8347371;28;20315;-67
2022/08/28 01:56:08;;;;;;;26.20;19.87;;;18.80;99.90;;;;;;8348308;28;20196;-66
2022/08/28 02:00:09;;;;;;;21.87;17.93;;;18.80;99.90;;;;;;8345667;28;20199;-66
2022/08/28 02:04:11;;;;;;;20.37;16.10;;;18.80;99.90;;;;;;8342279;28;20194;-67
2022/08/28 02:08:12;;;;;;;21.70;16.23;;;18.80;99.90;;;;;;8349513;28;20289;-66
2022/08/28 02:12:12;;;;;;;19.87;16.43;;;18.70;99.90;;;;;;8347581;28;20209;-66
2022/08/28 02:16:13;;;;;;;21.03;16.20;;;18.70;99.90;;;;;;8344163;28;20185;-66
2022/08/28 02:20:14;;;;;;;22.23;17.80;;;18.60;99.90;;;;;;8346034;28;20212;-66
2022/08/28 02:24:15;;;;;;;20.07;16.50;;;18.50;99.90;;;;;;8346075;28;20213;-66
2022/08/28 02:28:16;;;;;;;23.40;17.13;;;18.40;99.90;;;;;;8344036;28;20214;-66
2022/08/28 02:32:17;;;;;;;27.13;22.10;;;18.40;99.90;;;;;;8350107;28;20189;-66
2022/08/28 02:36:18;;;;;;;21.07;16.07;;;18.30;99.90;;;;;;8347707;28;20240;-67
2022/08/28 02:40:21;;;;;;;17.40;14.93;;;18.30;99.90;;;;;;8346152;28;20186;-66
2022/08/28 02:44:22;;;;;;;15.80;13.40;;;18.20;99.90;;;;;;8346899;28;20275;-66
2022/08/28 02:48:28;;;;;;;15.33;12.83;;;18.20;99.90;;;;;;8346087;28;20210;-67
2022/08/28 02:52:29;;;;;;;19.37;16.13;;;18.10;99.90;;;;;;8345475;28;20182;-66
2022/08/28 02:56:30;;;;;;;19.13;15.60;;;18.10;99.90;;;;;;8344415;28;20188;-66
2022/08/28 03:00:31;;;;;;;15.10;13.07;;;18.10;99.90;;;;;;8345424;28;20190;-71
2022/08/28 03:04:34;;;;;;;13.33;11.97;;;18.00;99.90;;;;;;8345166;28;20182;-67
2022/08/28 03:08:35;;;;;;;14.90;11.70;;;17.90;99.90;;;;;;8343874;28;20200;-66
2022/08/28 03:12:37;;;;;;;14.13;11.43;;;17.90;99.90;;;;;;8332329;28;20221;-66
2022/08/28 03:16:38;;;;;;;13.23;11.83;;;17.90;99.90;;;;;;8348369;28;21553;-66
2022/08/28 03:20:40;;;;;;;24.23;18.60;;;17.80;99.90;;;;;;8352773;28;20178;-66
2022/08/28 03:24:43;;;;;;;27.10;20.67;;;17.80;99.90;;;;;;8358680;28;20209;-67
2022/08/28 03:28:56;;;;;;;29.53;20.70;;;17.90;99.90;;;;;;8355141;28;20210;-67
2022/08/28 03:32:57;;;;;;;19.23;15.50;;;17.90;99.90;;;;;;8353174;28;20182;-66
2022/08/28 03:36:58;;;;;;;13.73;12.10;;;17.80;99.90;;;;;;8354302;28;20200;-66
2022/08/28 03:40:58;;;;;;;15.87;12.57;;;17.70;99.90;;;;;;8355138;28;20282;-66
2022/08/28 03:44:59;;;;;;;10.50;9.50;;;17.60;99.90;;;;;;8352365;28;20282;-66
2022/08/28 03:49:02;;;;;;;11.90;10.70;;;17.60;99.90;;;;;;8368547;28;20214;-66
2022/08/28 03:53:03;;;;;;;11.33;10.17;;;17.50;99.90;;;;;;8357227;28;20182;-67
2022/08/28 03:57:04;;;;;;;14.83;11.23;;;17.40;99.90;;;;;;8354872;28;20185;-66
2022/08/28 04:01:05;;;;;;;15.07;13.03;;;17.40;99.90;;;;;;8354914;28;20190;-67
2022/08/28 04:05:08;;;;;;;16.53;13.23;;;17.50;99.90;;;;;;8352543;28;20218;-67
2022/08/28 04:09:09;;;;;;;18.00;13.10;;;17.50;99.90;;;;;;8350696;28;20206;-67
2022/08/28 04:13:11;;;;;;;16.30;13.93;;;17.60;99.90;;;;;;8351541;28;20244;-67
2022/08/28 04:17:12;;;;;;;16.33;13.87;;;17.70;99.90;;;;;;8357145;28;20209;-67
2022/08/28 04:21:19;;;;;;;17.43;14.83;;;17.90;99.90;;;;;;8357603;28;20200;-67
2022/08/28 04:25:22;;;;;;;21.80;16.40;;;18.00;99.90;;;;;;8360456;28;20217;-67
2022/08/28 04:29:26;;;;;;;19.70;17.30;;;18.20;99.90;;;;;;8350901;28;20221;-66
2022/08/28 04:33:27;;;;;;;18.30;15.37;;;18.40;99.90;;;;;;8351568;28;20185;-67
2022/08/28 04:37:31;;;;;;;19.13;15.70;;;18.50;99.90;;;;;;8353649;28;20186;-66
2022/08/28 04:41:32;;;;;;;22.87;18.57;;;18.60;99.90;;;;;;8349882;28;20562;-67
2022/08/28 04:45:38;;;;;;;22.27;18.70;;;18.70;99.90;;;;;;8352243;28;20205;-67
2022/08/28 04:49:39;;;;;;;17.97;14.73;;;18.90;99.90;;;;;;8353696;28;20214;-67
2022/08/28 04:53:41;;;;;;;15.00;13.00;;;19.00;99.90;;;;;;8355152;28;20205;-67
2022/08/28 04:57:41;;;;;;;14.50;12.87;;;19.10;99.90;;;;;;8341730;28;20182;-67
2022/08/28 05:01:43;;;;;;;14.23;11.67;;;19.30;99.90;;;;;;8351998;28;20190;-67
2022/08/28 05:05:46;;;;;;;12.97;11.63;;;19.30;99.90;;;;;;8347549;28;20186;-68
2022/08/28 05:09:47;;;;;;;15.63;11.80;;;19.50;99.90;;;;;;8352789;28;20217;-66
2022/08/28 05:13:49;;;;;;;14.23;10.80;;;19.60;99.90;;;;;;8350879;28;20226;-67
2022/08/28 05:17:53;;;;;;;14.47;11.87;;;19.60;99.90;;;;;;8352927;28;20201;-72
2022/08/28 05:21:54;;;;;;;15.63;12.47;;;19.70;99.90;;;;;;8354204;28;20181;-67
2022/08/28 05:25:57;;;;;;;14.20;11.63;;;19.80;99.90;;;;;;8355164;28;20178;-67
2022/08/28 05:29:57;;;;;;;13.53;11.50;;;19.80;99.90;;;;;;8352245;28;20212;-67
2022/08/28 05:33:59;;;;;;;19.03;14.10;;;19.80;99.90;;;;;;8353602;28;20174;-67
2022/08/28 05:38:00;;;;;;;13.53;10.20;;;19.80;99.90;;;;;;8366786;28;20181;-67
2022/08/28 05:42:01;;;;;;;16.07;12.40;;;19.80;99.90;;;;;;8362001;28;20193;-67
2022/08/28 05:46:09;;;;;;;10.70;9.10;;;19.80;99.90;;;;;;8353338;28;20266;-67
2022/08/28 05:50:12;;;;;;;18.63;12.73;;;19.90;99.90;;;;;;8354854;28;20221;-66
2022/08/28 05:54:16;;;;;;;16.47;13.43;;;19.80;99.90;;;;;;8350455;28;20519;-71
2022/08/28 05:58:30;;;;;;;15.17;11.77;;;19.80;99.90;;;;;;8350791;28;20182;-67
2022/08/28 06:02:33;;;;;;;15.93;12.30;;;19.80;99.90;;;;;;8350711;28;20189;-67
2022/08/28 06:06:38;;;;;;;19.40;13.57;;;19.80;99.90;;;;;;8353807;28;20216;-66
2022/08/28 06:10:43;;;;;;;16.07;12.07;;;19.80;99.90;;;;;;8362937;28;20238;-66
2022/08/28 06:14:47;;;;;;;12.17;10.80;;;19.80;99.90;;;;;;8360214;28;20194;-67
2022/08/28 06:18:50;;;;;;;14.77;10.77;;;19.90;99.90;;;;;;8350413;28;20205;-68
2022/08/28 06:22:51;;;;;;;14.43;11.83;;;20.00;99.90;;;;;;8349070;28;20174;-67
2022/08/28 06:26:52;;;;;;;12.83;10.03;;;20.00;99.90;;;;;;8346031;28;20202;-67
2022/08/28 06:30:54;;;;;;;10.13;8.63;;;20.10;99.90;;;;;;8345680;28;20186;-67
2022/08/28 06:34:55;;;;;;;10.20;8.73;;;20.20;99.90;;;;;;8338064;28;20319;-68
2022/08/28 06:39:02;;;;;;;11.60;6.37;;;20.10;99.90;;;;;;8349842;28;20182;-66
2022/08/28 06:43:03;;;;;;;6.30;5.13;;;19.90;99.90;;;;;;8361660;28;20186;-67
2022/08/28 06:47:04;;;;;;;6.13;5.53;;;19.70;99.90;;;;;;8344929;28;20220;-67
2022/08/28 06:51:08;;;;;;;5.60;4.37;;;19.70;99.90;;;;;;8369244;28;20192;-68
2022/08/28 06:55:11;;;;;;;4.20;3.80;;;19.70;99.90;;;;;;8353681;28;20182;-67
2022/08/28 06:59:12;;;;;;;3.97;3.10;;;19.70;99.90;;;;;;8355990;28;20186;-66
2022/08/28 07:03:13;;;;;;;3.93;3.50;;;19.70;99.90;;;;;;8350745;28;20201;-68
2022/08/28 07:07:17;;;;;;;3.17;2.87;;;19.80;99.90;;;;;;8356831;28;20210;-65
2022/08/28 07:11:21;;;;;;;2.50;2.30;;;19.80;99.90;;;;;;8353523;28;20209;-68
2022/08/28 07:15:22;;;;;;;2.83;2.50;;;19.70;99.90;;;;;;8353786;28;20273;-67
2022/08/28 07:19:28;;;;;;;5.13;2.50;;;19.50;99.90;;;;;;8354149;28;20197;-66
2022/08/28 07:23:31;;;;;;;4.87;2.67;;;19.50;99.90;;;;;;8352806;28;20182;-67
2022/08/28 07:27:32;;;;;;;2.37;2.17;;;19.50;99.90;;;;;;8353279;28;20193;-69
2022/08/28 07:31:36;;;;;;;2.17;1.97;;;19.70;99.90;;;;;;8338324;28;20296;-65
2022/08/28 07:35:41;;;;;;;2.30;2.10;;;19.80;99.90;;;;;;8386441;28;20180;-68
2022/08/28 07:39:43;;;;;;;2.20;2.00;;;19.80;99.90;;;;;;8351867;28;20186;-66
2022/08/28 07:48:06;;;;;;;3.30;3.00;;;19.70;99.90;;;;;;8353740;28;20228;-67
2022/08/28 07:52:09;;;;;;;3.37;3.17;;;19.60;99.90;;;;;;8351544;28;20323;-67
2022/08/28 07:56:10;;;;;;;3.77;3.47;;;19.50;99.90;;;;;;8354212;28;20190;-67
2022/08/28 08:00:12;;;;;;;4.40;2.90;;;19.60;99.90;;;;;;8365334;28;20184;-68
2022/08/28 08:04:14;;;;;;;2.93;2.53;;;19.60;99.90;;;;;;8352406;28;20183;-70
2022/08/28 08:08:15;;;;;;;2.57;2.37;;;19.60;99.90;;;;;;8354280;28;20212;-67
2022/08/28 08:12:16;;;;;;;2.80;2.60;;;19.60;99.90;;;;;;8351905;28;20508;-69
2022/08/28 08:16:20;;;;;;;5.27;3.20;;;19.50;99.90;;;;;;8356740;28;20189;-69
2022/08/28 08:20:21;;;;;;;5.73;4.97;;;19.60;99.90;;;;;;8375996;28;20254;-69
2022/08/28 08:24:29;;;;;;;6.87;5.13;;;19.70;99.90;;;;;;8363018;28;20276;-68
2022/08/28 08:28:33;;;;;;;6.53;5.70;;;19.90;99.90;;;;;;8351228;28;20257;-68
2022/08/28 08:32:34;;;;;;;6.20;5.60;;;20.10;99.90;;;;;;8355327;28;20272;-69
2022/08/28 08:36:39;;;;;;;6.20;5.20;;;20.10;99.90;;;;;;8356524;28;20205;-69
2022/08/28 08:40:40;;;;;;;4.57;4.17;;;20.20;99.90;;;;;;8354532;28;20221;-69
2022/08/28 08:44:44;;;;;;;3.60;3.30;;;20.20;99.90;;;;;;8351854;28;20193;-69
2022/08/28 08:48:49;;;;;;;3.50;3.20;;;20.10;99.90;;;;;;8354927;28;20211;-69
2022/08/28 08:53:08;;;;;;;4.23;3.80;;;20.10;99.90;;;;;;8356536;28;20176;-69
2022/08/28 08:57:12;;;;;;;4.87;3.30;;;20.00;99.90;;;;;;8357726;28;20190;-70
2022/08/28 09:01:26;;;;;;;5.10;3.97;;;19.90;99.90;;;;;;8354966;28;20200;-70
2022/08/28 09:05:55;;;;;;;3.83;3.53;;;19.90;99.90;;;;;;8361371;28;20178;-68
2022/08/28 09:09:57;;;;;;;3.27;2.97;;;19.70;99.90;;;;;;8353950;28;20272;-68
2022/08/28 09:14:23;;;;;;;4.30;3.90;;;19.60;99.90;;;;;;8352519;28;20220;-71
2022/08/28 09:18:30;;;;;;;6.07;4.27;;;19.60;99.90;;;;;;8358041;28;20194;-68
2022/08/28 09:22:31;;;;;;;4.03;3.63;;;19.70;99.90;;;;;;8358912;28;20182;-70
2022/08/28 09:26:32;;;;;;;5.27;3.37;;;19.70;99.90;;;;;;8359296;28;20178;-68
2022/08/28 09:30:34;;;;;;;3.33;3.00;;;19.70;99.90;;;;;;8357346;28;20177;-67
2022/08/28 09:35:05;;;;;;;4.23;3.57;;;19.70;99.90;;;;;;8356958;28;20179;-71
2022/08/28 09:39:21;;;;;;;5.93;3.40;;;19.60;99.90;;;;;;8355990;28;20190;-69
2022/08/28 09:43:26;;;;;;;2.40;2.20;;;19.60;99.90;;;;;;8363343;28;20182;-68
2022/08/28 09:48:16;;;;;;;2.13;1.70;;;19.50;99.90;;;;;;8349487;28;20213;-70
2022/08/28 09:52:19;;;;;;;1.60;1.50;;;19.40;99.90;;;;;;8309569;28;20175;-69
2022/08/28 09:56:29;;;;;;;1.50;1.40;;;19.10;99.90;;;;;;8336329;28;20197;-68
2022/08/28 10:00:37;;;;;;;1.40;1.30;;;19.00;99.90;;;;;;8367177;28;20190;-69
2022/08/28 10:05:08;;;;;;;1.70;1.50;;;18.80;99.90;;;;;;8348245;28;20229;-68
2022/08/28 10:09:32;;;;;;;1.87;1.77;;;18.70;99.90;;;;;;8348398;28;20329;-68
2022/08/28 10:13:58;;;;;;;2.83;2.30;;;18.60;99.90;;;;;;8374431;28;20209;-73
2022/08/28 10:18:08;;;;;;;3.00;2.30;;;18.50;99.90;;;;;;8351549;28;20214;-69
2022/08/28 10:22:20;;;;;;;2.87;2.50;;;18.60;99.90;;;;;;8348794;28;20214;-69
2022/08/28 10:26:44;;;;;;;2.63;2.40;;;18.50;99.90;;;;;;8355746;28;20189;-69
2022/08/28 10:31:16;;;;;;;2.70;2.50;;;18.50;99.90;;;;;;8356628;28;20193;-69
2022/08/28 10:35:34;;;;;;;2.83;2.43;;;18.50;99.90;;;;;;8348685;28;20192;-67
2022/08/28 10:39:44;;;;;;;2.20;2.00;;;18.40;99.90;;;;;;8370157;28;20221;-67
2022/08/28 10:43:52;;;;;;;3.60;2.07;;;18.30;99.90;;;;;;8365912;28;20174;-66
2022/08/28 10:48:00;;;;;;;2.13;2.00;;;18.30;99.90;;;;;;8352100;28;20194;-67
2022/08/28 10:52:34;;;;;;;3.00;2.60;;;18.30;99.90;;;;;;8355222;28;20174;-69
2022/08/28 10:56:46;;;;;;;3.03;2.20;;;18.50;99.90;;;;;;8363669;28;20229;-67
2022/08/28 11:00:50;;;;;;;2.93;2.40;;;18.50;99.90;;;;;;8366497;28;20186;-70
2022/08/28 11:04:56;;;;;;;2.47;2.27;;;18.40;99.90;;;;;;8366183;28;20178;-68
2022/08/28 11:09:23;;;;;;;2.50;2.30;;;18.30;99.90;;;;;;8356129;28;20212;-67
2022/08/28 11:13:51;;;;;;;2.10;1.90;;;18.30;99.90;;;;;;8347800;28;20220;-68
2022/08/28 11:18:28;;;;;;;3.47;2.30;;;18.30;99.90;;;;;;8360822;28;20206;-69
2022/08/28 11:22:53;;;;;;;2.33;2.13;;;18.30;99.90;;;;;;8345722;28;20197;-68
2022/08/28 11:27:22;;;;;;;3.90;2.77;;;18.30;99.90;;;;;;8357998;28;20197;-69
2022/08/28 11:31:31;;;;;;;3.83;2.60;;;18.30;99.90;;;;;;8382612;28;20213;-68
2022/08/28 11:35:38;;;;;;;3.60;2.70;;;18.20;99.90;;;;;;8350238;28;20178;-69
2022/08/28 11:39:39;;;;;;;2.60;2.40;;;18.20;99.90;;;;;;8351912;28;20177;-68
2022/08/28 11:43:44;;;;;;;3.83;2.50;;;18.10;99.90;;;;;;8354942;28;20272;-68
2022/08/28 11:47:51;;;;;;;2.90;2.60;;;18.20;99.90;;;;;;8359709;28;20198;-68
2022/08/28 11:52:04;;;;;;;4.37;2.70;;;18.20;99.90;;;;;;8370982;28;20193;-70
2022/08/28 11:56:35;;;;;;;3.40;2.67;;;18.20;99.90;;;;;;8348722;28;20182;-67
2022/08/28 12:00:54;;;;;;;4.43;4.03;;;18.10;99.90;;;;;;8350647;28;20186;-67
2022/08/28 12:04:55;;;;;;;3.93;3.60;;;18.00;99.90;;;;;;8347179;28;20178;-68
2022/08/28 12:08:58;;;;;;;4.20;3.80;;;18.10;99.90;;;;;;8359590;28;20216;-66
2022/08/28 12:13:00;;;;;;;4.30;3.90;;;18.20;99.90;;;;;;8355104;28;20201;-67
2022/08/28 12:17:36;;;;;;;4.90;4.37;;;18.30;99.90;;;;;;8351036;28;20194;-70
2022/08/28 12:21:40;;;;;;;5.77;5.20;;;18.30;99.90;;;;;;8351216;28;20198;-67
2022/08/28 12:25:42;;;;;;;6.70;6.00;;;18.30;99.90;;;;;;8363696;28;20214;-69
2022/08/28 12:30:01;;;;;;;6.70;6.10;;;18.40;99.90;;;;;;8353709;28;20305;-67
2022/08/28 12:34:08;;;;;;;7.60;6.90;;;18.30;99.90;;;;;;8357325;28;20177;-68
2022/08/28 12:38:20;;;;;;;7.77;6.97;;;18.20;99.90;;;;;;8353534;28;20225;-70
2022/08/28 12:42:28;;;;;;;8.37;7.57;;;18.10;99.90;;;;;;8367026;28;20197;-68
2022/08/28 12:46:36;;;;;;;11.27;9.00;;;18.00;99.90;;;;;;8358389;28;20186;-69
2022/08/28 12:50:38;;;;;;;10.17;9.20;;;17.90;99.90;;;;;;8367735;28;20205;-70
2022/08/28 12:54:39;;;;;;;10.70;9.63;;;17.80;99.90;;;;;;8351048;28;20185;-70
2022/08/28 12:58:42;;;;;;;15.83;11.50;;;17.70;99.90;;;;;;8352343;28;20186;-66
2022/08/28 13:02:46;;;;;;;15.10;12.73;;;17.60;99.90;;;;;;8347950;28;20263;-69
2022/08/28 13:06:47;;;;;;;17.13;13.27;;;17.60;99.90;;;;;;8386716;28;20190;-69
2022/08/28 13:10:50;;;;;;;16.17;14.33;;;17.60;99.90;;;;;;8351781;28;20193;-69
2022/08/28 13:14:54;;;;;;;17.73;14.70;;;17.60;99.90;;;;;;8353936;28;20181;-71
2022/08/28 13:19:18;;;;;;;17.77;15.10;;;17.60;99.90;;;;;;8353215;28;20210;-68
2022/08/28 13:23:29;;;;;;;21.07;15.23;;;17.50;99.90;;;;;;8348151;28;20197;-68
2022/08/28 13:27:33;;;;;;;20.97;15.83;;;17.50;99.90;;;;;;8351022;28;20213;-70
2022/08/28 13:31:39;;;;;;;25.47;17.30;;;17.40;99.90;;;;;;8347848;28;20178;-70
2022/08/28 13:35:41;;;;;;;26.60;17.70;;;17.40;99.90;;;;;;8348171;28;20187;-67
2022/08/28 13:39:42;;;;;;;30.13;19.10;;;17.50;99.90;;;;;;8351500;28;20186;-70
2022/08/28 13:43:45;;;;;;;29.67;20.07;;;17.40;99.90;;;;;;8348091;28;20194;-69
2022/08/28 13:47:46;;;;;;;28.77;18.93;;;17.50;99.90;;;;;;8352480;28;20201;-69
2022/08/28 13:51:48;;;;;;;28.40;18.77;;;17.50;99.90;;;;;;8349292;28;20307;-70
2022/08/28 13:55:50;;;;;;;21.80;17.73;;;17.60;99.90;;;;;;8347556;28;20182;-69
2022/08/28 13:59:54;;;;;;;25.13;17.47;;;17.70;99.90;;;;;;8351144;28;20190;-72
2022/08/28 14:03:56;;;;;;;25.37;15.73;;;17.90;99.90;;;;;;8341267;28;20194;-72
2022/08/28 14:08:00;;;;;;;20.13;13.77;;;17.90;99.90;;;;;;8352391;28;20292;-69
2022/08/28 14:12:01;;;;;;;24.43;13.97;;;18.00;99.90;;;;;;8344821;28;20197;-69
2022/08/28 14:16:06;;;;;;;20.40;14.10;;;18.00;99.90;;;;;;8345340;28;20178;-69
2022/08/28 14:20:08;;;;;;;19.47;12.97;;;18.00;99.90;;;;;;8345371;28;20212;-68
2022/08/28 14:24:09;;;;;;;23.07;13.60;;;18.10;99.90;;;;;;8347850;28;20192;-67
2022/08/28 14:28:13;;;;;;;20.90;12.93;;;18.20;99.90;;;;;;8349425;28;20275;-69
2022/08/28 14:32:14;;;;;;;19.17;13.93;;;18.10;99.90;;;;;;8343219;28;20272;-69
2022/08/28 14:36:21;;;;;;;20.63;13.57;;;18.10;99.90;;;;;;8349696;28;20185;-70
2022/08/28 14:40:22;;;;;;;15.93;13.03;;;18.10;99.90;;;;;;8359453;28;20269;-70
2022/08/28 14:44:24;;;;;;;18.30;13.37;;;18.20;99.90;;;;;;8347237;28;20239;-70
2022/08/28 14:48:25;;;;;;;20.40;12.73;;;18.30;99.90;;;;;;8351441;28;20217;-70
2022/08/28 14:52:26;;;;;;;20.20;11.43;;;18.20;99.90;;;;;;8345177;28;20215;-70
2022/08/28 14:56:28;;;;;;;13.07;11.60;;;18.30;99.90;;;;;;8347671;28;20182;-71
2022/08/28 15:00:29;;;;;;;15.37;11.70;;;18.30;99.90;;;;;;8345101;28;20190;-70
2022/08/28 15:04:34;;;;;;;15.53;11.93;;;18.40;99.90;;;;;;8346032;28;20244;-70
2022/08/28 15:08:35;;;;;;;16.20;12.30;;;18.30;99.90;;;;;;8361060;28;20213;-72
2022/08/28 15:12:37;;;;;;;17.20;12.67;;;18.40;99.90;;;;;;8348216;28;20226;-71
2022/08/28 15:16:44;;;;;;;18.60;13.13;;;18.40;99.90;;;;;;8359943;28;20186;-72
2022/08/28 15:20:45;;;;;;;17.30;12.37;;;18.40;99.90;;;;;;8355131;28;20206;-71
2022/08/28 15:24:46;;;;;;;19.97;12.67;;;18.40;99.90;;;;;;8354470;28;20182;-70
2022/08/28 15:28:49;;;;;;;15.10;12.17;;;18.50;99.90;;;;;;8353419;28;20201;-70
2022/08/28 15:32:56;;;;;;;20.70;13.37;;;18.50;99.90;;;;;;8355571;28;20186;-71
2022/08/28 15:36:59;;;;;;;16.33;12.00;;;18.50;99.90;;;;;;8352172;28;20236;-70
2022/08/28 15:45:19;;;;;;;14.10;10.73;;;18.60;99.90;;;;;;8350767;28;20188;-70
2022/08/28 15:49:23;;;;;;;16.23;10.80;;;18.70;99.90;;;;;;8350223;28;20213;-70
2022/08/28 15:53:24;;;;;;;11.37;9.40;;;18.70;99.90;;;;;;8350040;28;20178;-69
2022/08/28 15:57:25;;;;;;;16.30;10.97;;;18.70;99.90;;;;;;8348736;28;20305;-70
2022/08/28 16:01:26;;;;;;;16.70;9.93;;;18.70;99.90;;;;;;8348392;28;20239;-70
2022/08/28 16:05:32;;;;;;;21.57;10.47;;;18.80;99.90;;;;;;8350857;28;20299;-69
2022/08/28 16:09:33;;;;;;;13.73;9.37;;;18.80;99.90;;;;;;8347210;28;20273;-69
2022/08/28 16:13:34;;;;;;;17.27;9.73;;;18.80;99.90;;;;;;8347980;28;20204;-68
2022/08/28 16:17:35;;;;;;;14.40;9.33;;;18.80;99.90;;;;;;8349811;28;20621;-68
2022/08/28 16:21:36;;;;;;;16.57;9.43;;;18.90;99.90;;;;;;8346928;28;20197;-69
2022/08/28 16:25:38;;;;;;;15.47;8.37;;;19.20;99.90;;;;;;8346363;28;20189;-69
2022/08/28 16:29:39;;;;;;;14.83;8.43;;;19.50;99.90;;;;;;8350722;28;20210;-68
2022/08/28 16:33:40;;;;;;;11.30;6.50;;;19.80;99.90;;;;;;8347764;28;20614;-69
2022/08/28 16:37:41;;;;;;;10.07;6.73;;;20.00;99.90;;;;;;8353275;28;20196;-70
2022/08/28 16:41:48;;;;;;;8.07;6.30;;;20.20;99.90;;;;;;8382941;28;20186;-68
2022/08/28 16:45:49;;;;;;;10.70;6.73;;;20.20;99.90;;;;;;8349092;28;20296;-69
2022/08/28 16:49:54;;;;;;;11.17;6.47;;;20.10;99.90;;;;;;8346022;28;20220;-70
2022/08/28 16:53:56;;;;;;;8.70;6.33;;;19.90;99.90;;;;;;8348293;28;20184;-70
2022/08/28 16:57:56;;;;;;;10.80;6.83;;;19.70;99.90;;;;;;8346218;28;20277;-69
2022/08/28 17:01:57;;;;;;;12.53;6.87;;;19.50;99.90;;;;;;8345714;28;20228;-69
2022/08/28 17:06:19;;;;;;;9.63;6.87;;;19.20;99.90;;;;;;8346429;28;20179;-69
2022/08/28 17:10:23;;;;;;;12.20;7.27;;;19.10;99.90;;;;;;8346859;28;20293;-69
2022/08/28 17:14:24;;;;;;;11.03;6.60;;;19.00;99.90;;;;;;8349811;28;20190;-68
2022/08/28 17:18:25;;;;;;;9.57;5.97;;;19.00;99.90;;;;;;8349836;28;20288;-68
2022/08/28 17:22:35;;;;;;;8.13;5.90;;;18.90;99.90;;;;;;8347355;28;20178;-68
2022/08/28 17:26:36;;;;;;;12.77;6.10;;;18.80;99.90;;;;;;8351066;28;20263;-69
2022/08/28 17:30:37;;;;;;;12.53;6.10;;;18.70;99.90;;;;;;8336017;28;20206;-69
2022/08/28 17:34:38;;;;;;;9.33;5.70;;;18.60;99.90;;;;;;8347450;28;20182;-69
2022/08/28 17:38:41;;;;;;;9.47;5.47;;;18.40;99.90;;;;;;8345250;28;20189;-69
2022/08/28 17:42:44;;;;;;;11.63;6.17;;;18.30;99.90;;;;;;8343555;28;20220;-68
2022/08/28 17:46:45;;;;;;;9.73;5.40;;;18.10;99.90;;;;;;8347189;28;20174;-68
2022/08/28 17:50:46;;;;;;;11.27;5.77;;;17.90;99.90;;;;;;8347747;28;20316;-68
2022/08/28 17:54:46;;;;;;;8.37;6.07;;;17.80;99.90;;;;;;8346622;28;20194;-68
2022/08/28 17:58:48;;;;;;;13.63;6.23;;;17.70;99.90;;;;;;8342679;28;20195;-68
2022/08/28 18:02:51;;;;;;;13.57;6.63;;;17.50;99.90;;;;;;8346455;28;20194;-68
2022/08/28 18:06:53;;;;;;;12.23;6.47;;;17.40;99.90;;;;;;8344829;28;20263;-68
2022/08/28 18:10:53;;;;;;;12.23;6.53;;;17.20;99.90;;;;;;8344587;28;20213;-70
2022/08/28 18:14:57;;;;;;;12.33;7.37;;;17.10;99.90;;;;;;8345852;28;20178;-69
2022/08/28 18:18:59;;;;;;;8.20;6.63;;;17.00;99.90;;;;;;8351879;28;20206;-68
2022/08/28 18:23:01;;;;;;;11.53;7.30;;;16.90;99.90;;;;;;8344554;28;20205;-68
2022/08/28 18:27:03;;;;;;;12.97;7.70;;;16.90;99.90;;;;;;8348014;28;20194;-68
2022/08/28 18:31:08;;;;;;;11.40;7.37;;;16.80;99.90;;;;;;8348230;28;20192;-69
2022/08/28 18:35:09;;;;;;;14.13;7.33;;;16.70;99.90;;;;;;8346809;28;20182;-68
2022/08/28 18:39:11;;;;;;;13.50;7.67;;;16.60;99.90;;;;;;8348795;28;20212;-68
2022/08/28 18:43:12;;;;;;;12.10;7.00;;;16.50;99.90;;;;;;8346988;28;20194;-68
2022/08/28 18:47:13;;;;;;;14.37;7.10;;;16.40;99.90;;;;;;8345706;28;20188;-68
2022/08/28 18:51:14;;;;;;;14.07;8.43;;;16.40;99.90;;;;;;8350928;28;20185;-69
2022/08/28 18:55:16;;;;;;;11.00;7.40;;;16.40;99.90;;;;;;8353204;28;20189;-68
2022/08/28 18:59:17;;;;;;;16.33;8.40;;;16.40;99.90;;;;;;8364214;28;20267;-68
2022/08/28 19:03:19;;;;;;;12.07;8.07;;;16.40;99.90;;;;;;8350600;28;20190;-68
2022/08/28 19:07:20;;;;;;;17.10;8.43;;;16.30;99.90;;;;;;8350461;28;20236;-69
2022/08/28 19:11:21;;;;;;;17.23;7.83;;;16.30;99.90;;;;;;8384408;28;20282;-68
2022/08/28 19:15:22;;;;;;;16.77;7.70;;;16.20;99.90;;;;;;8351562;28;20182;-68
2022/08/28 19:19:27;;;;;;;11.47;6.90;;;16.20;99.90;;;;;;8350473;28;20232;-68
2022/08/28 19:23:27;;;;;;;16.30;8.00;;;16.10;99.90;;;;;;8350634;28;20218;-70
2022/08/28 19:27:28;;;;;;;12.43;8.00;;;16.00;99.90;;;;;;8347250;28;20209;-68
2022/08/28 19:31:29;;;;;;;11.13;7.70;;;15.80;99.90;;;;;;8350034;28;20251;-68
2022/08/28 19:35:30;;;;;;;10.13;7.90;;;15.80;99.90;;;;;;8351633;28;20209;-68
2022/08/28 19:39:31;;;;;;;16.17;6.87;;;15.70;99.90;;;;;;8350652;28;20611;-68
2022/08/28 19:43:32;;;;;;;13.60;8.40;;;15.60;99.90;;;;;;8348721;28;20281;-69
2022/08/28 19:47:33;;;;;;;14.10;8.07;;;15.50;99.90;;;;;;8349066;28;20265;-69
2022/08/28 19:51:36;;;;;;;16.67;8.87;;;15.40;99.90;;;;;;8352785;28;20242;-69
2022/08/28 19:55:37;;;;;;;14.27;7.93;;;15.40;99.90;;;;;;8348050;28;20504;-70
2022/08/28 19:59:38;;;;;;;13.80;7.97;;;15.30;99.90;;;;;;8346946;28;20182;-68
2022/08/28 20:03:39;;;;;;;11.17;8.23;;;15.30;99.90;;;;;;8352318;28;20190;-68
2022/08/28 20:07:47;;;;;;;13.17;9.37;;;15.30;99.90;;;;;;8345365;28;20225;-68
2022/08/28 20:11:48;;;;;;;17.93;7.93;;;15.30;99.90;;;;;;8348701;28;20201;-69
2022/08/28 20:15:55;;;;;;;15.57;8.70;;;15.20;99.90;;;;;;8348498;28;20190;-69
2022/08/28 20:19:59;;;;;;;17.33;8.37;;;15.20;99.90;;;;;;8350622;28;20273;-69
2022/08/28 20:24:00;;;;;;;14.23;8.67;;;15.10;99.90;;;;;;8381302;28;20190;-68
2022/08/28 20:28:01;;;;;;;14.90;8.87;;;15.10;99.90;;;;;;8351480;28;20216;-68
2022/08/28 20:32:03;;;;;;;18.07;9.43;;;15.00;99.90;;;;;;8347202;28;20197;-69
2022/08/28 20:36:07;;;;;;;16.07;8.80;;;14.90;99.90;;;;;;8349831;28;20244;-69
2022/08/28 20:40:08;;;;;;;12.33;8.00;;;14.90;99.90;;;;;;8357834;28;20190;-69
2022/08/28 20:44:11;;;;;;;15.50;7.97;;;14.90;99.90;;;;;;8347074;28;20190;-68
2022/08/28 20:48:12;;;;;;;15.10;7.83;;;14.80;99.90;;;;;;8347930;28;20281;-68
2022/08/28 20:52:14;;;;;;;15.00;7.03;;;14.70;99.90;;;;;;8346566;28;20240;-68
2022/08/28 20:56:14;;;;;;;12.63;7.10;;;14.60;99.90;;;;;;8347939;28;20193;-69
2022/08/28 21:00:15;;;;;;;11.30;6.67;;;14.40;99.90;;;;;;8346622;28;20182;-68
2022/08/28 21:04:17;;;;;;;9.73;7.07;;;14.30;99.90;;;;;;8354571;28;20251;-68
2022/08/28 21:08:18;;;;;;;13.93;6.50;;;14.30;99.90;;;;;;8348546;28;20206;-68